Time;durP1;ratioP1;P1;durP2;ratioP2;P2;SDS_P1;SDS_P2;PMS_P1;PMS_P2;Temp;Humidity;BMP_temperature;BMP_pressure;BME280_temperature;BME280_humidity;BME280_pressure;Samples;Min_cycle;Max_cycle;Signal;HPM_P1;HPM_P2
2023/06/01 00:00:17;;;;;;;;;;;18.00;64.10;;;;;;6154669;23;19911;-89
2023/06/01 00:02:43;;;;;;;;;;;18.00;64.20;;;;;;6153830;23;19931;-90
2023/06/01 00:05:08;;;;;;;;;;;18.00;64.30;;;;;;6156067;23;19927;-89
2023/06/01 00:07:34;;;;;;;;;;;18.00;64.30;;;;;;6157435;23;19905;-89
2023/06/01 00:10:00;;;;;;;;;;;17.90;64.40;;;;;;6155723;23;19960;-90
2023/06/01 00:12:29;;;;;;;;;;;17.90;64.40;;;;;;6157003;23;20327;-89
2023/06/01 00:14:54;;;;;;;;;;;18.00;64.40;;;;;;6155908;23;20342;-90
2023/06/01 00:17:22;;;;;;;;;;;17.90;64.40;;;;;;6155514;23;19905;-90
2023/06/01 00:19:48;;;;;;;;;;;17.90;64.50;;;;;;6155732;23;19991;-90
2023/06/01 00:22:15;;;;;;;;;;;17.90;64.50;;;;;;6155711;23;19944;-90
2023/06/01 00:24:41;;;;;;;;;;;18.00;64.60;;;;;;6155810;23;19905;-89
2023/06/01 00:27:07;;;;;;;;;;;17.90;64.60;;;;;;6157132;23;19904;-90
2023/06/01 00:29:33;;;;;;;;;;;17.90;64.70;;;;;;6156992;23;19913;-89
2023/06/01 00:31:58;;;;;;;;;;;17.90;64.70;;;;;;6155388;23;19915;-90
2023/06/01 00:34:24;;;;;;;;;;;17.90;64.80;;;;;;6155766;23;19904;-89
2023/06/01 00:36:50;;;;;;;;;;;17.90;64.80;;;;;;6155600;23;19959;-89
2023/06/01 00:39:15;;;;;;;;;;;17.90;65.00;;;;;;6155698;23;19915;-89
2023/06/01 00:41:41;;;;;;;;;;;17.90;64.90;;;;;;6155568;23;19909;-90
2023/06/01 00:44:07;;;;;;;;;;;17.90;65.00;;;;;;6155745;23;19904;-89
2023/06/01 00:46:32;;;;;;;;;;;17.90;65.00;;;;;;6154895;23;19944;-89
2023/06/01 00:48:58;;;;;;;;;;;17.90;65.10;;;;;;6155170;23;19948;-89
2023/06/01 00:51:24;;;;;;;;;;;17.90;65.10;;;;;;6155144;23;19909;-89
2023/06/01 00:53:50;;;;;;;;;;;17.90;65.10;;;;;;6155778;23;19988;-89
2023/06/01 00:56:17;;;;;;;;;;;17.90;65.20;;;;;;6154484;23;19963;-89
2023/06/01 00:58:43;;;;;;;;;;;17.90;65.30;;;;;;6155624;23;20212;-89
2023/06/01 01:01:18;;;;;;;;;;;17.90;65.30;;;;;;6155627;23;19915;-89
2023/06/01 01:03:57;;;;;;;;;;;17.90;65.30;;;;;;6155501;23;19905;-90
2023/06/01 01:06:30;;;;;;;;;;;17.90;65.30;;;;;;6155779;23;19909;-89
2023/06/01 01:09:19;;;;;;;;;;;17.90;65.30;;;;;;6155595;23;19909;-89
2023/06/01 01:11:50;;;;;;;;;;;17.90;65.40;;;;;;6154962;23;20270;-90
2023/06/01 01:14:21;;;;;;;;;;;17.80;65.30;;;;;;6155403;23;19962;-89
2023/06/01 01:17:07;;;;;;;;;;;17.80;65.40;;;;;;6155262;23;19912;-89
2023/06/01 01:19:36;;;;;;;;;;;17.80;65.40;;;;;;6155725;23;19904;-88
2023/06/01 01:22:20;;;;;;;;;;;17.80;65.40;;;;;;6155512;23;19904;-89
2023/06/01 01:24:46;;;;;;;;;;;17.80;65.40;;;;;;6155885;23;19912;-89
2023/06/01 01:27:24;;;;;;;;;;;17.80;65.40;;;;;;6155865;23;19979;-89
2023/06/01 01:29:51;;;;;;;;;;;17.80;65.50;;;;;;6155459;23;19920;-89
2023/06/01 01:32:17;;;;;;;;;;;17.80;65.50;;;;;;6155008;23;19934;-90
2023/06/01 01:34:44;;;;;;;;;;;17.80;65.60;;;;;;6155643;23;19992;-89
2023/06/01 01:37:10;;;;;;;;;;;17.80;65.70;;;;;;6154779;23;19919;-89
2023/06/01 01:39:35;;;;;;;;;;;17.80;65.60;;;;;;6154589;23;19944;-89
2023/06/01 01:42:01;;;;;;;;;;;17.80;65.60;;;;;;6154679;23;19904;-89
2023/06/01 01:44:27;;;;;;;;;;;17.80;65.80;;;;;;6156371;23;19912;-89
2023/06/01 01:46:53;;;;;;;;;;;17.80;65.80;;;;;;6157537;23;19905;-89
2023/06/01 01:49:18;;;;;;;;;;;17.80;65.80;;;;;;6156814;23;19904;-89
2023/06/01 01:51:50;;;;;;;;;;;17.80;65.90;;;;;;6157272;23;19951;-90
2023/06/01 01:54:17;;;;;;;;;;;17.80;65.80;;;;;;6157061;23;19913;-89
2023/06/01 01:56:44;;;;;;;;;;;17.80;65.90;;;;;;6157006;23;20373;-89
2023/06/01 01:59:10;;;;;;;;;;;17.80;65.90;;;;;;6156482;23;19988;-89
2023/06/01 02:01:36;;;;;;;;;;;17.80;66.80;;;;;;6155272;23;19940;-89
2023/06/01 02:04:03;;;;;;;;;;;17.70;65.90;;;;;;6156191;23;19905;-89
2023/06/01 02:06:28;;;;;;;;;;;17.70;66.00;;;;;;6156578;23;19912;-89
2023/06/01 02:08:54;;;;;;;;;;;17.80;66.10;;;;;;6156219;23;19955;-89
2023/06/01 02:11:20;;;;;;;;;;;17.70;66.10;;;;;;6154684;23;19944;-89
2023/06/01 02:13:46;;;;;;;;;;;17.80;66.10;;;;;;6157327;23;19916;-89
2023/06/01 02:16:12;;;;;;;;;;;17.70;66.10;;;;;;6155708;23;19905;-89
2023/06/01 02:18:39;;;;;;;;;;;17.70;66.10;;;;;;6155966;23;19905;-89
2023/06/01 02:21:08;;;;;;;;;;;17.70;66.10;;;;;;6156543;23;19908;-89
2023/06/01 02:23:35;;;;;;;;;;;17.70;66.20;;;;;;6156568;23;19905;-89
2023/06/01 02:26:00;;;;;;;;;;;17.70;66.30;;;;;;6156743;23;20278;-89
2023/06/01 02:28:29;;;;;;;;;;;17.70;66.30;;;;;;6156319;23;19917;-89
2023/06/01 02:30:55;;;;;;;;;;;17.70;66.30;;;;;;6156306;23;19917;-89
2023/06/01 02:33:20;;;;;;;;;;;17.70;66.30;;;;;;6156806;23;20678;-89
2023/06/01 02:35:46;;;;;;;;;;;17.70;66.40;;;;;;6156413;23;19912;-89
2023/06/01 02:38:11;;;;;;;;;;;17.70;66.50;;;;;;6157139;23;19904;-89
2023/06/01 02:40:37;;;;;;;;;;;17.70;66.50;;;;;;6156851;23;20386;-89
2023/06/01 02:43:02;;;;;;;;;;;17.70;66.50;;;;;;6156664;23;19904;-89
2023/06/01 02:45:28;;;;;;;;;;;17.70;66.50;;;;;;6156542;23;19932;-89
2023/06/01 02:47:53;;;;;;;;;;;17.70;66.50;;;;;;6158493;23;20046;-89
2023/06/01 02:50:19;;;;;;;;;;;17.70;66.60;;;;;;6157073;23;19928;-89
2023/06/01 02:52:44;;;;;;;;;;;17.70;66.60;;;;;;6156954;23;19909;-89
2023/06/01 02:55:10;;;;;;;;;;;17.60;66.40;;;;;;6156181;23;19909;-89
2023/06/01 02:57:35;;;;;;;;;;;17.70;66.50;;;;;;6156133;23;19915;-89
2023/06/01 03:00:01;;;;;;;;;;;17.70;66.60;;;;;;6156673;23;19955;-89
2023/06/01 03:02:27;;;;;;;;;;;17.60;66.50;;;;;;6156209;23;19904;-89
2023/06/01 03:04:53;;;;;;;;;;;17.60;66.60;;;;;;6156556;23;19905;-89
2023/06/01 03:07:18;;;;;;;;;;;17.60;66.60;;;;;;6156773;23;19983;-89
2023/06/01 03:09:44;;;;;;;;;;;17.60;66.70;;;;;;6156367;23;19905;-89
2023/06/01 03:12:10;;;;;;;;;;;17.60;66.70;;;;;;6156620;23;19915;-89
2023/06/01 03:14:35;;;;;;;;;;;17.60;66.70;;;;;;6156813;23;19992;-89
2023/06/01 03:17:01;;;;;;;;;;;17.50;66.70;;;;;;6156288;23;20242;-89
2023/06/01 03:19:27;;;;;;;;;;;17.60;66.80;;;;;;6155866;23;19905;-89
2023/06/01 03:21:52;;;;;;;;;;;17.60;66.70;;;;;;6155748;23;19995;-89
2023/06/01 03:24:18;;;;;;;;;;;17.60;66.80;;;;;;6155750;23;19904;-89
2023/06/01 03:26:43;;;;;;;;;;;17.60;66.80;;;;;;6155578;23;19962;-89
2023/06/01 03:29:09;;;;;;;;;;;17.60;66.90;;;;;;6156134;23;19912;-89
2023/06/01 03:31:34;;;;;;;;;;;17.60;66.80;;;;;;6155709;23;19987;-89
2023/06/01 03:34:00;;;;;;;;;;;17.60;66.90;;;;;;6154974;23;19984;-89
2023/06/01 03:36:27;;;;;;;;;;;17.60;66.70;;;;;;6155051;23;19990;-89
2023/06/01 03:38:53;;;;;;;;;;;17.60;66.90;;;;;;6155571;23;19905;-89
2023/06/01 03:41:18;;;;;;;;;;;17.60;67.00;;;;;;6155485;23;19911;-88
2023/06/01 03:43:44;;;;;;;;;;;17.60;67.10;;;;;;6156875;23;19905;-89
2023/06/01 03:46:10;;;;;;;;;;;17.60;66.90;;;;;;6155448;23;19905;-88
2023/06/01 03:48:35;;;;;;;;;;;17.50;67.00;;;;;;6156711;23;19920;-87
2023/06/01 03:51:01;;;;;;;;;;;17.50;67.00;;;;;;6154551;23;19916;-89
2023/06/01 03:53:27;;;;;;;;;;;17.60;67.20;;;;;;6155162;23;20379;-89
2023/06/01 03:55:52;;;;;;;;;;;17.50;67.10;;;;;;6153640;23;19908;-89
2023/06/01 03:58:19;;;;;;;;;;;17.50;67.20;;;;;;6154248;23;20491;-90
2023/06/01 04:00:46;;;;;;;;;;;17.50;67.20;;;;;;6153624;23;19924;-89
2023/06/01 04:03:12;;;;;;;;;;;17.50;67.40;;;;;;6153445;23;19912;-88
2023/06/01 04:05:37;;;;;;;;;;;17.50;67.40;;;;;;6154572;23;19904;-89
2023/06/01 04:08:03;;;;;;;;;;;17.50;67.30;;;;;;6154093;23;19904;-89
2023/06/01 04:10:28;;;;;;;;;;;17.50;67.40;;;;;;6155085;23;19951;-89
2023/06/01 04:12:54;;;;;;;;;;;17.50;67.40;;;;;;6154836;23;19912;-89
2023/06/01 04:15:20;;;;;;;;;;;17.50;67.60;;;;;;6154973;23;19912;-89
2023/06/01 04:17:46;;;;;;;;;;;17.50;67.50;;;;;;6155268;23;19916;-89
2023/06/01 04:20:12;;;;;;;;;;;17.50;67.50;;;;;;6156189;23;19904;-89
2023/06/01 04:22:38;;;;;;;;;;;17.50;67.60;;;;;;6155029;23;19904;-89
2023/06/01 04:25:06;;;;;;;;;;;17.50;67.70;;;;;;6153655;23;19904;-89
2023/06/01 04:27:31;;;;;;;;;;;17.50;67.70;;;;;;6154207;23;19932;-89
2023/06/01 04:29:58;;;;;;;;;;;17.50;67.70;;;;;;6155011;23;19913;-89
2023/06/01 04:32:24;;;;;;;;;;;17.50;67.60;;;;;;6154119;23;19908;-89
2023/06/01 04:34:50;;;;;;;;;;;17.50;67.80;;;;;;6154256;23;19927;-88
2023/06/01 04:37:20;;;;;;;;;;;17.50;67.90;;;;;;6154440;23;19983;-89
2023/06/01 04:39:49;;;;;;;;;;;17.50;67.90;;;;;;6154914;23;20092;-89
2023/06/01 04:42:16;;;;;;;;;;;17.50;68.00;;;;;;6154174;23;19905;-88
2023/06/01 04:44:42;;;;;;;;;;;17.50;68.00;;;;;;6154100;23;19983;-89
2023/06/01 04:47:08;;;;;;;;;;;17.50;68.10;;;;;;6153708;23;19916;-89
2023/06/01 04:49:41;;;;;;;;;;;17.50;68.20;;;;;;6154594;23;19904;-89
2023/06/01 04:52:07;;;;;;;;;;;17.80;68.40;;;;;;6154552;23;19917;-89
2023/06/01 04:54:33;;;;;;;;;;;17.50;68.30;;;;;;6152947;23;19966;-89
2023/06/01 04:56:58;;;;;;;;;;;17.50;69.10;;;;;;6154100;23;19908;-89
2023/06/01 04:59:24;;;;;;;;;;;17.50;68.50;;;;;;6154462;23;19987;-89
2023/06/01 05:01:49;;;;;;;;;;;17.50;68.50;;;;;;6153556;23;19916;-88
2023/06/01 05:04:15;;;;;;;;;;;17.50;68.60;;;;;;6153755;23;19912;-89
2023/06/01 05:06:40;;;;;;;;;;;17.50;68.60;;;;;;6154144;23;19927;-89
2023/06/01 05:09:06;;;;;;;;;;;17.50;68.60;;;;;;6154487;23;20326;-89
2023/06/01 05:11:31;;;;;;;;;;;17.50;68.70;;;;;;6154253;23;19908;-88
2023/06/01 05:14:01;;;;;;;;;;;17.50;68.70;;;;;;6154004;23;20336;-89
2023/06/01 05:16:27;;;;;;;;;;;17.50;68.80;;;;;;6154772;23;19912;-89
2023/06/01 05:18:52;;;;;;;;;;;17.50;68.90;;;;;;6153728;23;19904;-89
2023/06/01 05:21:18;;;;;;;;;;;17.50;69.00;;;;;;6154330;23;20350;-90
2023/06/01 05:23:44;;;;;;;;;;;17.50;69.10;;;;;;6153484;23;19912;-90
2023/06/01 05:26:09;;;;;;;;;;;17.60;69.20;;;;;;6154037;23;19905;-90
2023/06/01 05:28:35;;;;;;;;;;;17.60;69.10;;;;;;6154148;23;19912;-90
2023/06/01 05:31:01;;;;;;;;;;;17.60;69.20;;;;;;6153788;23;19912;-90
2023/06/01 05:33:27;;;;;;;;;;;17.60;69.20;;;;;;6154089;23;19943;-90
2023/06/01 05:35:52;;;;;;;;;;;17.60;69.30;;;;;;6153755;23;20392;-90
2023/06/01 05:38:18;;;;;;;;;;;17.60;69.10;;;;;;6153091;23;19944;-90
2023/06/01 05:40:44;;;;;;;;;;;17.70;69.00;;;;;;6155781;23;19905;-90
2023/06/01 05:43:10;;;;;;;;;;;17.70;69.10;;;;;;6153979;23;19912;-90
2023/06/01 05:45:36;;;;;;;;;;;17.70;68.90;;;;;;6152441;23;19909;-90
2023/06/01 05:48:01;;;;;;;;;;;17.70;68.90;;;;;;6151972;23;20223;-90
2023/06/01 05:50:27;;;;;;;;;;;17.70;68.80;;;;;;6152685;23;19909;-90
2023/06/01 05:52:53;;;;;;;;;;;17.70;68.80;;;;;;6155057;23;19908;-90
2023/06/01 05:55:19;;;;;;;;;;;17.70;68.70;;;;;;6153648;23;19912;-90
2023/06/01 05:57:45;;;;;;;;;;;17.80;68.80;;;;;;6153961;23;20378;-90
2023/06/01 06:00:12;;;;;;;;;;;17.80;68.80;;;;;;6154294;23;19943;-90
2023/06/01 06:02:48;;;;;;;;;;;17.80;68.70;;;;;;6154725;23;20289;-90
2023/06/01 06:05:14;;;;;;;;;;;17.80;68.60;;;;;;6154174;23;19980;-89
2023/06/01 06:07:39;;;;;;;;;;;17.80;68.60;;;;;;6153876;23;20003;-89
2023/06/01 06:10:05;;;;;;;;;;;17.80;68.50;;;;;;6155303;23;19912;-90
2023/06/01 06:12:31;;;;;;;;;;;17.90;68.50;;;;;;6154408;23;19947;-90
2023/06/01 06:14:56;;;;;;;;;;;17.90;68.50;;;;;;6153726;23;19956;-89
2023/06/01 06:17:22;;;;;;;;;;;17.90;68.50;;;;;;6154359;23;19985;-90
2023/06/01 06:19:49;;;;;;;;;;;17.90;68.30;;;;;;6154870;23;20219;-90
2023/06/01 06:22:15;;;;;;;;;;;18.00;68.30;;;;;;6154354;23;19904;-91
2023/06/01 06:24:41;;;;;;;;;;;18.00;68.10;;;;;;6155326;23;19932;-90
2023/06/01 06:27:08;;;;;;;;;;;18.00;68.10;;;;;;6155871;23;19904;-90
2023/06/01 06:29:33;;;;;;;;;;;18.10;68.10;;;;;;6155443;23;19988;-91
2023/06/01 06:31:59;;;;;;;;;;;18.10;68.00;;;;;;6156284;23;19908;-91
2023/06/01 06:34:25;;;;;;;;;;;18.10;68.00;;;;;;6157207;23;19905;-91
2023/06/01 06:36:52;;;;;;;;;;;18.20;68.00;;;;;;6156358;23;19904;-91
2023/06/01 06:39:18;;;;;;;;;;;18.20;67.90;;;;;;6155679;23;19931;-91
2023/06/01 06:41:43;;;;;;;;;;;18.30;67.90;;;;;;6155444;23;19909;-91
2023/06/01 06:44:09;;;;;;;;;;;18.30;67.70;;;;;;6155863;23;19927;-90
2023/06/01 06:46:34;;;;;;;;;;;18.30;67.60;;;;;;6156208;23;20327;-91
2023/06/01 06:49:00;;;;;;;;;;;18.40;67.50;;;;;;6156008;23;20434;-92
2023/06/01 06:51:26;;;;;;;;;;;18.40;67.40;;;;;;6156030;23;20322;-91
2023/06/01 06:53:51;;;;;;;;;;;18.50;67.30;;;;;;6154864;23;19905;-91
2023/06/01 06:56:23;;;;;;;;;;;18.50;67.20;;;;;;6156864;23;19905;-91
2023/06/01 06:58:48;;;;;;;;;;;18.60;67.00;;;;;;6154885;23;19943;-92
2023/06/01 07:01:14;;;;;;;;;;;18.60;66.80;;;;;;6155086;23;19904;-92
2023/06/01 07:03:40;;;;;;;;;;;18.60;66.70;;;;;;6156006;23;19943;-92
2023/06/01 07:06:06;;;;;;;;;;;18.70;66.60;;;;;;6155006;23;19904;-92
2023/06/01 07:08:34;;;;;;;;;;;18.70;66.40;;;;;;6154223;23;19905;-90
2023/06/01 07:11:00;;;;;;;;;;;18.80;66.30;;;;;;6155005;23;19904;-90
2023/06/01 07:13:26;;;;;;;;;;;18.90;65.60;;;;;;6156549;23;19998;-89
2023/06/01 07:15:55;;;;;;;;;;;19.00;65.50;;;;;;6153320;23;20311;-91
2023/06/01 07:18:20;;;;;;;;;;;19.10;65.30;;;;;;6154038;23;20014;-92
2023/06/01 07:20:46;;;;;;;;;;;19.20;64.80;;;;;;6156515;23;20334;-91
2023/06/01 07:23:15;;;;;;;;;;;19.20;64.40;;;;;;6154346;23;19909;-91
2023/06/01 07:25:41;;;;;;;;;;;19.20;64.20;;;;;;6154236;23;19932;-90
2023/06/01 07:28:07;;;;;;;;;;;19.20;63.90;;;;;;6154587;23;19916;-91
2023/06/01 07:30:32;;;;;;;;;;;19.30;64.60;;;;;;6155375;23;19935;-90
2023/06/01 07:32:58;;;;;;;;;;;19.40;63.60;;;;;;6151595;23;20510;-91
2023/06/01 07:35:23;;;;;;;;;;;19.50;63.00;;;;;;6149556;23;19904;-91
2023/06/01 07:37:49;;;;;;;;;;;19.50;63.60;;;;;;6152493;23;20386;-92
2023/06/01 07:40:15;;;;;;;;;;;19.60;63.50;;;;;;6152624;23;19904;-91
2023/06/01 07:42:40;;;;;;;;;;;19.60;63.20;;;;;;6153005;23;19915;-92
2023/06/01 07:45:08;;;;;;;;;;;19.70;63.50;;;;;;6154982;23;19940;-92
2023/06/01 07:47:33;;;;;;;;;;;19.70;63.40;;;;;;6155149;23;19911;-92
2023/06/01 07:49:59;;;;;;;;;;;19.80;63.60;;;;;;6154245;23;20242;-92
2023/06/01 07:52:25;;;;;;;;;;;19.90;63.30;;;;;;6155478;23;20334;-91
2023/06/01 07:54:51;;;;;;;;;;;19.90;63.60;;;;;;6155381;23;19912;-92
2023/06/01 07:57:17;;;;;;;;;;;20.00;63.20;;;;;;6153736;23;19979;-93
2023/06/01 07:59:42;;;;;;;;;;;20.00;62.70;;;;;;6154814;23;20314;-90
2023/06/01 08:02:10;;;;;;;;;;;20.00;62.70;;;;;;6155600;23;19905;-91
2023/06/01 08:04:37;;;;;;;;;;;20.10;62.40;;;;;;6153879;23;19909;-90
2023/06/01 08:07:03;;;;;;;;;;;20.10;62.30;;;;;;6154403;23;19904;-91
2023/06/01 08:09:30;;;;;;;;;;;20.20;62.00;;;;;;6154606;23;19947;-91
2023/06/01 08:11:55;;;;;;;;;;;20.20;62.00;;;;;;6154476;23;19909;-89
2023/06/01 08:14:21;;;;;;;;;;;20.30;61.70;;;;;;6154912;23;20512;-91
2023/06/01 08:16:47;;;;;;;;;;;20.30;61.50;;;;;;6153575;23;19912;-92
2023/06/01 08:19:13;;;;;;;;;;;20.40;62.20;;;;;;6153615;23;19911;-91
2023/06/01 08:21:41;;;;;;;;;;;20.40;61.50;;;;;;6153049;23;19989;-92
2023/06/01 08:24:08;;;;;;;;;;;20.50;61.50;;;;;;6153425;23;19960;-91
2023/06/01 08:26:34;;;;;;;;;;;20.50;61.20;;;;;;6155412;23;19976;-91
2023/06/01 08:29:00;;;;;;;;;;;20.50;61.20;;;;;;6153585;23;19991;-92
2023/06/01 08:31:25;;;;;;;;;;;20.60;61.40;;;;;;6152983;23;20305;-91
2023/06/01 08:33:51;;;;;;;;;;;20.60;61.20;;;;;;6154183;23;19905;-90
2023/06/01 08:36:18;;;;;;;;;;;20.60;61.60;;;;;;6154443;23;19919;-90
2023/06/01 08:38:43;;;;;;;;;;;20.70;62.50;;;;;;6155829;23;19905;-91
2023/06/01 08:41:18;;;;;;;;;;;20.70;62.20;;;;;;6155462;23;19904;-92
2023/06/01 08:43:47;;;;;;;;;;;20.70;61.80;;;;;;6154446;23;19936;-91
2023/06/01 08:46:14;;;;;;;;;;;20.70;61.50;;;;;;6154118;23;19905;-92
2023/06/01 08:48:40;;;;;;;;;;;20.80;61.50;;;;;;6154078;23;19904;-91
2023/06/01 08:51:06;;;;;;;;;;;20.80;62.20;;;;;;6154145;23;19979;-91
2023/06/01 08:53:32;;;;;;;;;;;20.90;61.80;;;;;;6154308;23;19905;-91
2023/06/01 08:55:58;;;;;;;;;;;20.90;61.90;;;;;;6154082;23;19912;-88
2023/06/01 08:58:24;;;;;;;;;;;21.00;61.90;;;;;;6154712;23;19905;-90
2023/06/01 09:00:50;;;;;;;;;;;21.00;61.90;;;;;;6153597;23;19905;-89
2023/06/01 09:03:16;;;;;;;;;;;21.00;61.80;;;;;;6154440;23;20005;-92
2023/06/01 09:05:41;;;;;;;;;;;21.00;61.60;;;;;;6154033;23;19905;-93
2023/06/01 09:08:07;;;;;;;;;;;21.00;60.90;;;;;;6155617;23;19905;-92
2023/06/01 09:10:33;;;;;;;;;;;21.10;61.20;;;;;;6155571;23;19940;-92
2023/06/01 09:13:00;;;;;;;;;;;21.10;61.80;;;;;;6154225;23;19966;-89
2023/06/01 09:15:25;;;;;;;;;;;21.10;61.00;;;;;;6154521;23;19905;-92
2023/06/01 09:17:51;;;;;;;;;;;21.20;62.00;;;;;;6154471;23;20026;-91
2023/06/01 09:20:24;;;;;;;;;;;21.20;60.80;;;;;;6153884;23;19919;-92
2023/06/01 09:22:50;;;;;;;;;;;21.20;60.60;;;;;;6153298;23;20345;-91
2023/06/01 09:25:15;;;;;;;;;;;21.20;60.90;;;;;;6153685;23;19905;-92
2023/06/01 09:27:42;;;;;;;;;;;21.30;62.50;;;;;;6154135;23;19954;-93
2023/06/01 09:30:07;;;;;;;;;;;21.30;61.80;;;;;;6154185;23;20322;-91
2023/06/01 09:32:33;;;;;;;;;;;21.30;61.00;;;;;;6153976;23;19912;-91
2023/06/01 09:34:59;;;;;;;;;;;21.30;60.70;;;;;;6155058;23;19904;-90
2023/06/01 09:37:25;;;;;;;;;;;21.40;60.00;;;;;;6154859;23;19915;-91
2023/06/01 09:39:51;;;;;;;;;;;21.30;59.40;;;;;;6153043;23;19905;-90
2023/06/01 09:42:16;;;;;;;;;;;21.40;59.10;;;;;;6153804;23;19927;-93
2023/06/01 09:44:42;;;;;;;;;;;21.40;59.10;;;;;;6153221;23;19908;-91
2023/06/01 09:47:14;;;;;;;;;;;21.40;58.80;;;;;;6153667;23;19991;-90
2023/06/01 09:49:41;;;;;;;;;;;21.40;59.10;;;;;;6154262;23;20003;-91
2023/06/01 09:52:07;;;;;;;;;;;21.40;58.90;;;;;;6155397;23;20305;-90
2023/06/01 09:54:32;;;;;;;;;;;21.50;58.70;;;;;;6153125;23;19908;-90
2023/06/01 09:56:58;;;;;;;;;;;21.50;59.10;;;;;;6155364;23;20262;-91
2023/06/01 09:59:25;;;;;;;;;;;21.50;58.50;;;;;;6153733;23;19908;-92
2023/06/01 10:01:51;;;;;;;;;;;21.40;58.70;;;;;;6153923;23;19916;-91
2023/06/01 10:04:22;;;;;;;;;;;21.40;57.40;;;;;;6154284;23;19987;-90
2023/06/01 10:06:51;;;;;;;;;;;21.50;58.00;;;;;;6155774;23;19905;-90
2023/06/01 10:09:19;;;;;;;;;;;21.40;57.70;;;;;;6156173;23;20330;-90
2023/06/01 10:11:45;;;;;;;;;;;21.40;57.40;;;;;;6155180;23;19913;-90
2023/06/01 10:14:11;;;;;;;;;;;21.40;57.80;;;;;;6156693;23;19908;-90
2023/06/01 10:16:36;;;;;;;;;;;21.40;57.90;;;;;;6156187;23;19955;-90
2023/06/01 10:19:02;;;;;;;;;;;21.40;57.50;;;;;;6156427;23;19912;-89
2023/06/01 10:21:28;;;;;;;;;;;21.50;58.60;;;;;;6156167;23;19909;-91
2023/06/01 10:23:54;;;;;;;;;;;21.50;58.30;;;;;;6157141;23;19905;-90
2023/06/01 10:26:22;;;;;;;;;;;21.50;58.40;;;;;;6157702;23;20039;-90
2023/06/01 10:28:48;;;;;;;;;;;21.40;57.60;;;;;;6158864;23;19939;-91
2023/06/01 10:31:43;;;;;;;;;;;21.40;57.90;;;;;;6158460;23;20319;-90
2023/06/01 10:34:09;;;;;;;;;;;21.40;57.30;;;;;;6039726;23;19938;-90
2023/06/01 10:37:04;;;;;;;;;;;21.40;57.80;;;;;;6039969;23;19984;-92
2023/06/01 10:39:33;;;;;;;;;;;21.30;57.80;;;;;;6008399;23;20006;-90
2023/06/01 10:42:15;;;;;;;;;;;21.30;58.70;;;;;;6015002;23;19974;-91
2023/06/01 10:44:40;;;;;;;;;;;21.30;58.50;;;;;;6037792;23;19981;-90
2023/06/01 10:47:25;;;;;;;;;;;21.30;58.30;;;;;;6037188;23;19949;-90
2023/06/01 10:49:51;;;;;;;;;;;21.30;59.40;;;;;;6013840;23;19913;-89
2023/06/01 10:52:28;;;;;;;;;;;21.30;59.20;;;;;;6037452;23;20664;-90
2023/06/01 10:55:13;;;;;;;;;;;21.30;58.70;;;;;;6037273;23;19910;-90
2023/06/01 10:57:40;;;;;;;;;;;21.20;58.40;;;;;;6013237;23;19913;-89
2023/06/01 11:00:13;;;;;;;;;;;21.20;58.40;;;;;;6013923;23;19910;-91
2023/06/01 11:02:45;;;;;;;;;;;21.10;58.60;;;;;;6013510;23;19906;-89
2023/06/01 11:05:40;;;;;;;;;;;21.10;58.60;;;;;;6035574;23;20309;-89
2023/06/01 11:08:06;;;;;;;;;;;21.00;58.40;;;;;;5952458;24;20337;-89
2023/06/01 11:10:50;;;;;;;;;;;21.00;58.80;;;;;;5971243;23;20115;-89
2023/06/01 11:13:19;;;;;;;;;;;21.10;59.20;;;;;;6013607;23;19946;-91
2023/06/01 11:16:03;;;;;;;;;;;21.00;58.60;;;;;;6013150;23;19913;-90
2023/06/01 11:18:41;;;;;;;;;;;21.00;58.90;;;;;;6037360;23;19910;-90
2023/06/01 11:21:10;;;;;;;;;;;21.00;59.20;;;;;;6012514;23;20368;-91
2023/06/01 11:23:38;;;;;;;;;;;20.90;58.40;;;;;;6036203;23;20292;-88
2023/06/01 11:26:06;;;;;;;;;;;20.90;58.70;;;;;;6013893;23;20364;-90
2023/06/01 11:28:31;;;;;;;;;;;20.90;58.80;;;;;;6013177;23;20267;-90
2023/06/01 11:30:58;;;;;;;;;;;20.90;58.70;;;;;;6014571;23;19941;-89
2023/06/01 11:33:25;;;;;;;;;;;20.90;58.60;;;;;;6014689;23;19917;-90
2023/06/01 11:35:59;;;;;;;;;;;20.90;58.90;;;;;;6014795;23;19957;-90
2023/06/01 11:38:35;;;;;;;;;;;20.90;58.80;;;;;;6014635;23;19906;-91
2023/06/01 11:41:03;;;;;;;;;;;20.80;58.40;;;;;;6015583;23;19910;-90
2023/06/01 11:43:30;;;;;;;;;;;20.80;58.10;;;;;;6049480;23;19910;-90
2023/06/01 11:46:02;;;;;;;;;;;20.80;58.80;;;;;;6156171;23;19911;-90
2023/06/01 11:48:27;;;;;;;;;;;20.80;58.90;;;;;;6155814;23;19909;-91
2023/06/01 11:50:54;;;;;;;;;;;20.80;57.80;;;;;;6156693;23;19959;-89
2023/06/01 11:53:20;;;;;;;;;;;20.80;57.90;;;;;;6155392;23;19979;-90
2023/06/01 11:55:53;;;;;;;;;;;20.80;57.60;;;;;;6155874;23;19951;-89
2023/06/01 11:58:26;;;;;;;;;;;20.80;58.50;;;;;;6156871;23;19932;-90
2023/06/01 12:00:52;;;;;;;;;;;20.80;59.00;;;;;;6156195;23;19908;-90
2023/06/01 12:03:18;;;;;;;;;;;20.80;58.30;;;;;;6156592;23;20373;-90
2023/06/01 12:05:48;;;;;;;;;;;20.80;57.70;;;;;;6155269;23;19983;-89
2023/06/01 12:08:24;;;;;;;;;;;20.80;58.70;;;;;;6155578;23;19983;-91
2023/06/01 12:10:50;;;;;;;;;;;20.80;58.40;;;;;;6155536;23;19905;-90
2023/06/01 12:13:19;;;;;;;;;;;20.70;57.80;;;;;;6156466;23;19963;-90
2023/06/01 12:15:45;;;;;;;;;;;20.80;58.20;;;;;;6155702;23;19928;-91
2023/06/01 12:18:11;;;;;;;;;;;20.80;59.80;;;;;;6155483;23;20238;-91
2023/06/01 12:20:39;;;;;;;;;;;20.80;59.40;;;;;;6156037;23;20481;-91
2023/06/01 12:23:14;;;;;;;;;;;21.00;61.10;;;;;;6156202;23;19904;-90
2023/06/01 12:25:57;;;;;;;;;;;20.90;59.50;;;;;;6155938;23;19994;-91
2023/06/01 12:28:23;;;;;;;;;;;20.90;59.40;;;;;;6155402;23;20296;-92
2023/06/01 12:30:49;;;;;;;;;;;20.80;59.40;;;;;;6154238;23;19904;-91
2023/06/01 12:33:34;;;;;;;;;;;20.80;58.60;;;;;;6154231;23;19943;-91
2023/06/01 12:36:01;;;;;;;;;;;20.80;58.70;;;;;;6155078;23;20318;-91
2023/06/01 12:38:26;;;;;;;;;;;20.90;59.20;;;;;;6156227;23;19909;-92
2023/06/01 12:41:11;;;;;;;;;;;20.80;58.70;;;;;;6154035;23;19962;-91
2023/06/01 12:43:46;;;;;;;;;;;20.80;58.70;;;;;;6154189;23;19908;-92
2023/06/01 12:46:22;;;;;;;;;;;20.80;59.50;;;;;;6154199;23;19912;-91
2023/06/01 12:48:48;;;;;;;;;;;20.70;58.60;;;;;;6154345;23;19904;-90
2023/06/01 12:51:14;;;;;;;;;;;20.70;58.50;;;;;;6153577;23;19928;-91
2023/06/01 12:53:42;;;;;;;;;;;20.70;59.30;;;;;;6154274;23;19955;-93
2023/06/01 12:56:07;;;;;;;;;;;20.70;58.80;;;;;;6155035;23;19912;-91
2023/06/01 12:58:33;;;;;;;;;;;20.70;57.90;;;;;;6153606;23;19955;-91
2023/06/01 13:00:59;;;;;;;;;;;20.80;59.20;;;;;;6155232;23;19904;-93
2023/06/01 13:03:24;;;;;;;;;;;20.80;58.80;;;;;;6153745;23;19932;-92
2023/06/01 13:05:51;;;;;;;;;;;20.80;59.10;;;;;;6151554;23;19960;-91
2023/06/01 13:08:16;;;;;;;;;;;20.80;58.40;;;;;;6152899;23;19908;-90
2023/06/01 13:10:42;;;;;;;;;;;20.80;58.70;;;;;;6153654;23;19908;-91
2023/06/01 13:13:08;;;;;;;;;;;20.80;58.70;;;;;;6153999;23;19908;-91
2023/06/01 13:15:33;;;;;;;;;;;20.80;58.50;;;;;;6154575;23;19904;-91
2023/06/01 13:17:59;;;;;;;;;;;20.80;60.50;;;;;;6155494;23;19913;-92
2023/06/01 13:20:25;;;;;;;;;;;20.80;59.20;;;;;;6154070;23;19904;-93
2023/06/01 13:22:52;;;;;;;;;;;20.80;60.70;;;;;;6154795;23;19908;-91
2023/06/01 13:25:18;;;;;;;;;;;20.80;58.60;;;;;;6154271;23;19912;-92
2023/06/01 13:27:44;;;;;;;;;;;20.80;58.40;;;;;;6155042;23;19911;-90
2023/06/01 13:30:10;;;;;;;;;;;20.80;59.30;;;;;;6155627;23;20242;-92
2023/06/01 13:32:36;;;;;;;;;;;20.80;58.50;;;;;;6155298;23;19909;-92
2023/06/01 13:35:01;;;;;;;;;;;20.80;58.90;;;;;;6155454;23;19983;-92
2023/06/01 13:37:27;;;;;;;;;;;20.80;59.30;;;;;;6155220;23;19916;-89
2023/06/01 13:39:52;;;;;;;;;;;20.80;58.90;;;;;;6155298;23;19909;-92
2023/06/01 13:42:18;;;;;;;;;;;20.70;59.80;;;;;;6156192;23;20039;-91
2023/06/01 13:44:45;;;;;;;;;;;20.80;60.20;;;;;;6157839;23;19905;-92
2023/06/01 13:47:11;;;;;;;;;;;20.80;59.60;;;;;;6154758;23;20321;-91
2023/06/01 13:49:37;;;;;;;;;;;20.80;60.30;;;;;;6155187;23;20345;-92
2023/06/01 13:52:02;;;;;;;;;;;20.70;58.90;;;;;;6157457;23;19955;-92
2023/06/01 13:54:28;;;;;;;;;;;20.70;58.50;;;;;;6155338;23;19995;-92
2023/06/01 13:56:54;;;;;;;;;;;20.70;59.00;;;;;;6155651;23;19908;-93
2023/06/01 13:59:20;;;;;;;;;;;20.70;58.90;;;;;;6155395;23;19905;-93
2023/06/01 14:01:45;;;;;;;;;;;20.60;59.40;;;;;;6155650;23;19933;-93
2023/06/01 14:04:11;;;;;;;;;;;20.50;59.60;;;;;;6154458;23;19905;-93
2023/06/01 14:06:37;;;;;;;;;;;20.40;59.90;;;;;;6155539;23;20378;-93
2023/06/01 14:09:02;;;;;;;;;;;20.30;60.20;;;;;;6155505;23;20220;-93
2023/06/01 14:11:28;;;;;;;;;;;20.30;60.60;;;;;;6155595;23;19913;-93
2023/06/01 14:13:53;;;;;;;;;;;20.30;60.90;;;;;;6155733;23;20467;-93
2023/06/01 14:16:19;;;;;;;;;;;20.30;61.00;;;;;;6155033;23;19905;-95